sensor_id;sensor_type;location;lat;lon;timestamp;pressure;altitude;pressure_sealevel;temperature;humidity
19005;BME280;9635;52.078;8.648;2023-11-21T00:02:09;99893.47;;;7.16;100.00
19005;BME280;9635;52.078;8.648;2023-11-21T00:07:13;99893.53;;;7.03;100.00
19005;BME280;9635;52.078;8.648;2023-11-21T00:12:34;99890.38;;;6.85;100.00
19005;BME280;9635;52.078;8.648;2023-11-21T00:17:37;99890.88;;;7.03;100.00
19005;BME280;9635;52.078;8.648;2023-11-21T00:22:42;99898.97;;;7.25;100.00
19005;BME280;9635;52.078;8.648;2023-11-21T00:27:48;99907.34;;;7.21;100.00
19005;BME280;9635;52.078;8.648;2023-11-21T00:32:51;99913.38;;;7.12;100.00
19005;BME280;9635;52.078;8.648;2023-11-21T00:37:56;99918.34;;;6.92;100.00
19005;BME280;9635;52.078;8.648;2023-11-21T00:43:00;99913.66;;;7.20;100.00
19005;BME280;9635;52.078;8.648;2023-11-21T00:48:05;99912.66;;;7.21;100.00
19005;BME280;9635;52.078;8.648;2023-11-21T00:53:11;99919.22;;;7.41;100.00
19005;BME280;9635;52.078;8.648;2023-11-21T00:58:14;99909.88;;;7.46;100.00
19005;BME280;9635;52.078;8.648;2023-11-21T01:03:17;99911.25;;;7.52;100.00
19005;BME280;9635;52.078;8.648;2023-11-21T01:08:21;99915.22;;;7.46;100.00
19005;BME280;9635;52.078;8.648;2023-11-21T01:13:26;99922.00;;;7.39;100.00
19005;BME280;9635;52.078;8.648;2023-11-21T01:18:31;99928.94;;;7.42;100.00
19005;BME280;9635;52.078;8.648;2023-11-21T01:23:35;99928.09;;;7.41;100.00
19005;BME280;9635;52.078;8.648;2023-11-21T01:28:38;99930.75;;;7.41;100.00
19005;BME280;9635;52.078;8.648;2023-11-21T01:33:41;99929.44;;;7.47;100.00
19005;BME280;9635;52.078;8.648;2023-11-21T01:38:46;99940.97;;;7.47;100.00
19005;BME280;9635;52.078;8.648;2023-11-21T01:43:50;99942.00;;;7.58;100.00
19005;BME280;9635;52.078;8.648;2023-11-21T01:48:55;99933.75;;;7.61;100.00
19005;BME280;9635;52.078;8.648;2023-11-21T01:54:00;99936.28;;;7.62;99.63
19005;BME280;9635;52.078;8.648;2023-11-21T01:59:03;99928.50;;;7.59;99.62
19005;BME280;9635;52.078;8.648;2023-11-21T02:04:07;99931.06;;;7.61;99.43
19005;BME280;9635;52.078;8.648;2023-11-21T02:09:12;99942.28;;;7.18;100.00
19005;BME280;9635;52.078;8.648;2023-11-21T02:14:17;99937.72;;;7.55;100.00
19005;BME280;9635;52.078;8.648;2023-11-21T02:19:22;99950.28;;;7.66;99.97
19005;BME280;9635;52.078;8.648;2023-11-21T02:24:28;99966.97;;;7.81;99.66
19005;BME280;9635;52.078;8.648;2023-11-21T02:29:31;99977.66;;;7.81;99.19
19005;BME280;9635;52.078;8.648;2023-11-21T02:34:34;99972.47;;;7.79;98.80
19005;BME280;9635;52.078;8.648;2023-11-21T02:39:39;99980.53;;;7.66;99.17
19005;BME280;9635;52.078;8.648;2023-11-21T02:44:41;99974.06;;;7.58;99.94
19005;BME280;9635;52.078;8.648;2023-11-21T02:49:44;99986.47;;;7.59;100.00
19005;BME280;9635;52.078;8.648;2023-11-21T02:54:49;99977.53;;;7.71;99.09
19005;BME280;9635;52.078;8.648;2023-11-21T02:59:52;99981.28;;;7.68;98.88
19005;BME280;9635;52.078;8.648;2023-11-21T03:04:54;99983.31;;;7.65;99.03
19005;BME280;9635;52.078;8.648;2023-11-21T03:09:58;99983.00;;;7.45;100.00
19005;BME280;9635;52.078;8.648;2023-11-21T03:15:02;99988.19;;;7.60;100.00
19005;BME280;9635;52.078;8.648;2023-11-21T03:20:06;99982.97;;;7.69;99.98
19005;BME280;9635;52.078;8.648;2023-11-21T03:25:15;99996.13;;;7.48;100.00
19005;BME280;9635;52.078;8.648;2023-11-21T03:30:19;99998.78;;;7.48;100.00
19005;BME280;9635;52.078;8.648;2023-11-21T03:35:22;100002.91;;;7.65;100.00
19005;BME280;9635;52.078;8.648;2023-11-21T03:40:27;100009.34;;;7.63;100.00
19005;BME280;9635;52.078;8.648;2023-11-21T03:45:30;100020.25;;;7.60;100.00
19005;BME280;9635;52.078;8.648;2023-11-21T03:50:33;100016.09;;;7.56;100.00
19005;BME280;9635;52.078;8.648;2023-11-21T03:55:37;100025.94;;;7.55;100.00
19005;BME280;9635;52.078;8.648;2023-11-21T04:00:40;100018.19;;;7.39;100.00
19005;BME280;9635;52.078;8.648;2023-11-21T04:05:43;100029.75;;;7.64;100.00
19005;BME280;9635;52.078;8.648;2023-11-21T04:10:49;100037.72;;;7.77;100.00
19005;BME280;9635;52.078;8.648;2023-11-21T04:15:54;100036.63;;;7.79;100.00
19005;BME280;9635;52.078;8.648;2023-11-21T04:20:58;100043.97;;;7.64;100.00
19005;BME280;9635;52.078;8.648;2023-11-21T04:26:02;100052.50;;;7.69;99.91
19005;BME280;9635;52.078;8.648;2023-11-21T04:31:05;100057.75;;;7.71;99.80
19005;BME280;9635;52.078;8.648;2023-11-21T04:36:09;100056.84;;;7.70;99.46
19005;BME280;9635;52.078;8.648;2023-11-21T04:41:13;100062.94;;;7.72;99.77
19005;BME280;9635;52.078;8.648;2023-11-21T04:46:16;100071.44;;;7.66;99.37
19005;BME280;9635;52.078;8.648;2023-11-21T04:51:19;100070.59;;;7.66;99.66
19005;BME280;9635;52.078;8.648;2023-11-21T04:56:23;100076.16;;;7.63;100.00
19005;BME280;9635;52.078;8.648;2023-11-21T05:01:26;100074.66;;;7.59;100.00
19005;BME280;9635;52.078;8.648;2023-11-21T05:06:29;100070.06;;;7.61;100.00
19005;BME280;9635;52.078;8.648;2023-11-21T05:11:33;100063.03;;;7.60;100.00
19005;BME280;9635;52.078;8.648;2023-11-21T05:16:36;100062.28;;;7.58;100.00
19005;BME280;9635;52.078;8.648;2023-11-21T05:21:39;100071.19;;;7.45;100.00
19005;BME280;9635;52.078;8.648;2023-11-21T05:26:44;100082.09;;;7.42;100.00
19005;BME280;9635;52.078;8.648;2023-11-21T05:31:46;100088.34;;;7.54;100.00
19005;BME280;9635;52.078;8.648;2023-11-21T05:36:50;100098.94;;;7.56;100.00
19005;BME280;9635;52.078;8.648;2023-11-21T05:41:54;100096.81;;;7.61;100.00
19005;BME280;9635;52.078;8.648;2023-11-21T05:46:57;100097.41;;;7.64;100.00
19005;BME280;9635;52.078;8.648;2023-11-21T05:52:01;100099.69;;;7.58;100.00
19005;BME280;9635;52.078;8.648;2023-11-21T05:57:05;100102.38;;;7.58;100.00
19005;BME280;9635;52.078;8.648;2023-11-21T06:02:08;100104.91;;;7.59;100.00
19005;BME280;9635;52.078;8.648;2023-11-21T06:07:11;100108.91;;;7.54;100.00
19005;BME280;9635;52.078;8.648;2023-11-21T06:12:15;100120.97;;;7.59;100.00
19005;BME280;9635;52.078;8.648;2023-11-21T06:17:18;100130.03;;;7.69;100.00
19005;BME280;9635;52.078;8.648;2023-11-21T06:22:21;100139.41;;;7.75;100.00
19005;BME280;9635;52.078;8.648;2023-11-21T06:27:26;100154.00;;;7.71;100.00
19005;BME280;9635;52.078;8.648;2023-11-21T06:32:29;100162.13;;;7.57;100.00
19005;BME280;9635;52.078;8.648;2023-11-21T06:37:32;100168.53;;;7.67;100.00
19005;BME280;9635;52.078;8.648;2023-11-21T06:42:36;100178.69;;;7.62;100.00
19005;BME280;9635;52.078;8.648;2023-11-21T06:47:40;100186.31;;;7.55;100.00
19005;BME280;9635;52.078;8.648;2023-11-21T06:52:44;100182.66;;;7.69;100.00
19005;BME280;9635;52.078;8.648;2023-11-21T06:57:48;100193.56;;;7.53;100.00
19005;BME280;9635;52.078;8.648;2023-11-21T07:02:51;100195.59;;;7.62;100.00
19005;BME280;9635;52.078;8.648;2023-11-21T07:07:54;100210.47;;;7.66;100.00
19005;BME280;9635;52.078;8.648;2023-11-21T07:12:59;100209.75;;;7.52;100.00
19005;BME280;9635;52.078;8.648;2023-11-21T07:18:02;100218.06;;;7.47;100.00
19005;BME280;9635;52.078;8.648;2023-11-21T07:23:05;100231.34;;;7.23;100.00
19005;BME280;9635;52.078;8.648;2023-11-21T07:28:10;100233.03;;;7.24;100.00
19005;BME280;9635;52.078;8.648;2023-11-21T07:33:13;100244.66;;;7.10;100.00
19005;BME280;9635;52.078;8.648;2023-11-21T07:38:16;100251.88;;;7.35;100.00
19005;BME280;9635;52.078;8.648;2023-11-21T07:43:20;100259.56;;;7.27;100.00
19005;BME280;9635;52.078;8.648;2023-11-21T07:48:25;100269.91;;;7.32;100.00
19005;BME280;9635;52.078;8.648;2023-11-21T07:53:28;100269.81;;;7.46;100.00
19005;BME280;9635;52.078;8.648;2023-11-21T07:58:33;100269.28;;;7.41;100.00
19005;BME280;9635;52.078;8.648;2023-11-21T08:03:36;100279.78;;;7.44;100.00
19005;BME280;9635;52.078;8.648;2023-11-21T08:08:39;100270.78;;;7.58;100.00
19005;BME280;9635;52.078;8.648;2023-11-21T08:13:43;100273.78;;;7.66;100.00
19005;BME280;9635;52.078;8.648;2023-11-21T08:18:46;100287.53;;;7.98;100.00
19005;BME280;9635;52.078;8.648;2023-11-21T08:23:49;100290.75;;;8.27;100.00
19005;BME280;9635;52.078;8.648;2023-11-21T08:28:57;100290.75;;;8.27;100.00
19005;BME280;9635;52.078;8.648;2023-11-21T08:34:00;100307.44;;;8.31;100.00
19005;BME280;9635;52.078;8.648;2023-11-21T08:39:03;100311.53;;;8.24;100.00
19005;BME280;9635;52.078;8.648;2023-11-21T08:44:08;100325.47;;;8.16;100.00
19005;BME280;9635;52.078;8.648;2023-11-21T08:49:11;100341.97;;;8.10;100.00
19005;BME280;9635;52.078;8.648;2023-11-21T08:54:16;100346.78;;;8.05;100.00
19005;BME280;9635;52.078;8.648;2023-11-21T08:59:20;100357.50;;;8.05;100.00
19005;BME280;9635;52.078;8.648;2023-11-21T09:04:23;100359.22;;;7.80;100.00
19005;BME280;9635;52.078;8.648;2023-11-21T09:09:26;100363.91;;;7.89;100.00
19005;BME280;9635;52.078;8.648;2023-11-21T09:14:31;100370.44;;;7.85;100.00
19005;BME280;9635;52.078;8.648;2023-11-21T09:19:33;100379.00;;;7.78;100.00
19005;BME280;9635;52.078;8.648;2023-11-21T09:24:37;100388.63;;;7.67;100.00
19005;BME280;9635;52.078;8.648;2023-11-21T09:29:42;100392.81;;;7.71;100.00
19005;BME280;9635;52.078;8.648;2023-11-21T09:34:45;100403.91;;;7.78;100.00
19005;BME280;9635;52.078;8.648;2023-11-21T09:39:48;100407.03;;;7.72;100.00
19005;BME280;9635;52.078;8.648;2023-11-21T09:44:57;100409.28;;;7.65;100.00
19005;BME280;9635;52.078;8.648;2023-11-21T09:50:06;100423.50;;;7.66;100.00
19005;BME280;9635;52.078;8.648;2023-11-21T09:55:10;100429.81;;;7.78;100.00
19005;BME280;9635;52.078;8.648;2023-11-21T10:00:19;100439.66;;;7.77;100.00
19005;BME280;9635;52.078;8.648;2023-11-21T10:05:25;100442.63;;;7.72;100.00
19005;BME280;9635;52.078;8.648;2023-11-21T10:10:31;100451.63;;;7.71;100.00
19005;BME280;9635;52.078;8.648;2023-11-21T10:15:36;100455.06;;;7.73;100.00
19005;BME280;9635;52.078;8.648;2023-11-21T10:20:39;100462.53;;;7.68;100.00
19005;BME280;9635;52.078;8.648;2023-11-21T10:25:42;100471.81;;;7.63;100.00
19005;BME280;9635;52.078;8.648;2023-11-21T10:30:46;100477.91;;;7.52;100.00
19005;BME280;9635;52.078;8.648;2023-11-21T10:35:49;100481.06;;;7.44;100.00
19005;BME280;9635;52.078;8.648;2023-11-21T10:40:54;100474.03;;;7.43;100.00
19005;BME280;9635;52.078;8.648;2023-11-21T10:45:59;100480.44;;;7.41;100.00
19005;BME280;9635;52.078;8.648;2023-11-21T10:51:06;100488.53;;;7.39;100.00
19005;BME280;9635;52.078;8.648;2023-11-21T10:56:09;100491.97;;;7.41;100.00
19005;BME280;9635;52.078;8.648;2023-11-21T11:01:21;100489.44;;;7.53;100.00
19005;BME280;9635;52.078;8.648;2023-11-21T11:06:25;100512.16;;;7.45;100.00
19005;BME280;9635;52.078;8.648;2023-11-21T11:11:30;100518.03;;;7.38;100.00
19005;BME280;9635;52.078;8.648;2023-11-21T11:16:35;100535.84;;;7.24;100.00
19005;BME280;9635;52.078;8.648;2023-11-21T11:21:46;100543.16;;;7.21;100.00
19005;BME280;9635;52.078;8.648;2023-11-21T11:26:57;100530.25;;;7.42;100.00
19005;BME280;9635;52.078;8.648;2023-11-21T11:32:12;100544.78;;;7.78;100.00
19005;BME280;9635;52.078;8.648;2023-11-21T11:37:19;100555.50;;;7.78;98.61
19005;BME280;9635;52.078;8.648;2023-11-21T11:42:24;100551.06;;;7.37;96.47
19005;BME280;9635;52.078;8.648;2023-11-21T11:47:29;100560.59;;;7.41;97.71
19005;BME280;9635;52.078;8.648;2023-11-21T11:52:38;100562.88;;;7.47;95.66
19005;BME280;9635;52.078;8.648;2023-11-21T11:57:43;100565.38;;;7.36;96.72
19005;BME280;9635;52.078;8.648;2023-11-21T12:02:48;100568.47;;;7.30;96.68
19005;BME280;9635;52.078;8.648;2023-11-21T12:07:54;100576.75;;;7.25;96.15
19005;BME280;9635;52.078;8.648;2023-11-21T12:13:00;100589.84;;;7.15;95.78
19005;BME280;9635;52.078;8.648;2023-11-21T12:18:04;100599.94;;;7.10;95.69
19005;BME280;9635;52.078;8.648;2023-11-21T12:23:08;100615.06;;;6.97;94.15
19005;BME280;9635;52.078;8.648;2023-11-21T12:28:12;100628.78;;;6.91;93.61
19005;BME280;9635;52.078;8.648;2023-11-21T12:33:17;100623.06;;;6.97;94.30
19005;BME280;9635;52.078;8.648;2023-11-21T12:38:21;100627.56;;;7.11;96.00
19005;BME280;9635;52.078;8.648;2023-11-21T12:43:26;100631.44;;;7.19;95.64
19005;BME280;9635;52.078;8.648;2023-11-21T12:48:31;100633.44;;;7.16;95.37
19005;BME280;9635;52.078;8.648;2023-11-21T12:53:35;100629.44;;;7.09;94.29
19005;BME280;9635;52.078;8.648;2023-11-21T12:58:44;100647.38;;;7.06;93.81
19005;BME280;9635;52.078;8.648;2023-11-21T13:03:50;100634.19;;;7.32;91.67
19005;BME280;9635;52.078;8.648;2023-11-21T13:08:54;100637.34;;;7.39;88.76
19005;BME280;9635;52.078;8.648;2023-11-21T13:13:58;100651.28;;;7.44;86.71
19005;BME280;9635;52.078;8.648;2023-11-21T13:19:03;100674.50;;;7.70;88.84
19005;BME280;9635;52.078;8.648;2023-11-21T13:24:07;100689.41;;;7.75;86.91
19005;BME280;9635;52.078;8.648;2023-11-21T13:29:12;100694.00;;;7.72;87.95
19005;BME280;9635;52.078;8.648;2023-11-21T13:34:16;100705.56;;;7.59;88.91
19005;BME280;9635;52.078;8.648;2023-11-21T13:39:25;100699.75;;;7.52;88.83
19005;BME280;9635;52.078;8.648;2023-11-21T13:44:30;100708.66;;;7.38;86.60
19005;BME280;9635;52.078;8.648;2023-11-21T13:49:40;100716.94;;;7.34;84.96
19005;BME280;9635;52.078;8.648;2023-11-21T13:54:43;100719.22;;;7.40;84.75
19005;BME280;9635;52.078;8.648;2023-11-21T13:59:46;100731.56;;;7.28;85.08
19005;BME280;9635;52.078;8.648;2023-11-21T14:04:50;100728.94;;;7.12;82.55
19005;BME280;9635;52.078;8.648;2023-11-21T14:09:57;100751.19;;;7.13;82.89
19005;BME280;9635;52.078;8.648;2023-11-21T14:15:00;100755.66;;;7.12;82.72
19005;BME280;9635;52.078;8.648;2023-11-21T14:20:07;100760.34;;;7.09;82.83
19005;BME280;9635;52.078;8.648;2023-11-21T14:25:17;100773.31;;;7.00;82.35
19005;BME280;9635;52.078;8.648;2023-11-21T14:30:20;100774.16;;;7.01;82.30
19005;BME280;9635;52.078;8.648;2023-11-21T14:35:25;100774.53;;;6.95;82.39
19005;BME280;9635;52.078;8.648;2023-11-21T14:40:29;100781.09;;;6.89;81.63
19005;BME280;9635;52.078;8.648;2023-11-21T14:45:34;100787.22;;;6.91;82.26
19005;BME280;9635;52.078;8.648;2023-11-21T14:50:39;100805.38;;;6.84;80.75
19005;BME280;9635;52.078;8.648;2023-11-21T14:55:52;100817.28;;;6.79;81.71
19005;BME280;9635;52.078;8.648;2023-11-21T15:01:01;100818.66;;;6.70;81.88
19005;BME280;9635;52.078;8.648;2023-11-21T15:06:07;100824.88;;;6.71;82.33
19005;BME280;9635;52.078;8.648;2023-11-21T15:11:27;100834.28;;;6.62;81.53
19005;BME280;9635;52.078;8.648;2023-11-21T15:16:33;100834.94;;;6.66;83.58
19005;BME280;9635;52.078;8.648;2023-11-21T15:21:42;100857.44;;;6.61;85.07
19005;BME280;9635;52.078;8.648;2023-11-21T15:26:45;100865.88;;;6.54;85.62
19005;BME280;9635;52.078;8.648;2023-11-21T15:31:48;100855.56;;;6.48;86.54
19005;BME280;9635;52.078;8.648;2023-11-21T15:36:53;100864.41;;;6.48;87.41
19005;BME280;9635;52.078;8.648;2023-11-21T15:41:56;100878.13;;;6.42;86.92
19005;BME280;9635;52.078;8.648;2023-11-21T15:47:00;100888.25;;;6.35;84.98
19005;BME280;9635;52.078;8.648;2023-11-21T15:52:07;100890.22;;;6.32;83.82
19005;BME280;9635;52.078;8.648;2023-11-21T15:57:12;100901.53;;;6.37;84.27
19005;BME280;9635;52.078;8.648;2023-11-21T16:02:16;100900.81;;;6.33;83.91
19005;BME280;9635;52.078;8.648;2023-11-21T16:07:20;100904.25;;;6.35;84.21
19005;BME280;9635;52.078;8.648;2023-11-21T16:12:23;100917.78;;;6.32;84.25
19005;BME280;9635;52.078;8.648;2023-11-21T16:17:27;100923.97;;;6.33;84.11
19005;BME280;9635;52.078;8.648;2023-11-21T16:22:31;100947.06;;;6.34;83.92
19005;BME280;9635;52.078;8.648;2023-11-21T16:27:36;100949.34;;;6.24;83.04
19005;BME280;9635;52.078;8.648;2023-11-21T16:32:39;100951.84;;;6.27;82.95
19005;BME280;9635;52.078;8.648;2023-11-21T16:37:44;100964.25;;;6.28;83.70
19005;BME280;9635;52.078;8.648;2023-11-21T16:42:49;100973.19;;;6.27;82.92
19005;BME280;9635;52.078;8.648;2023-11-21T16:47:52;100984.81;;;6.26;83.18
19005;BME280;9635;52.078;8.648;2023-11-21T16:52:57;100999.72;;;6.30;83.48
19005;BME280;9635;52.078;8.648;2023-11-21T16:58:00;101007.88;;;6.27;83.39
19005;BME280;9635;52.078;8.648;2023-11-21T17:03:03;101009.63;;;6.28;83.75
19005;BME280;9635;52.078;8.648;2023-11-21T17:08:08;101020.13;;;6.31;83.67
19005;BME280;9635;52.078;8.648;2023-11-21T17:13:12;101029.09;;;6.13;85.95
19005;BME280;9635;52.078;8.648;2023-11-21T17:18:16;101031.69;;;5.97;87.69
19005;BME280;9635;52.078;8.648;2023-11-21T17:23:21;101052.50;;;5.90;88.98
19005;BME280;9635;52.078;8.648;2023-11-21T17:28:24;101061.03;;;5.80;89.80
19005;BME280;9635;52.078;8.648;2023-11-21T17:33:27;101069.25;;;5.75;89.47
19005;BME280;9635;52.078;8.648;2023-11-21T17:38:31;101083.44;;;5.76;88.68
19005;BME280;9635;52.078;8.648;2023-11-21T17:43:35;101083.44;;;5.76;89.04
19005;BME280;9635;52.078;8.648;2023-11-21T17:48:41;101088.69;;;5.77;88.87
19005;BME280;9635;52.078;8.648;2023-11-21T17:53:46;101108.22;;;5.78;88.79
19005;BME280;9635;52.078;8.648;2023-11-21T17:58:50;101108.69;;;5.68;88.54
19005;BME280;9635;52.078;8.648;2023-11-21T18:03:56;101113.78;;;5.73;88.37
19005;BME280;9635;52.078;8.648;2023-11-21T18:09:01;101126.09;;;5.76;88.35
19005;BME280;9635;52.078;8.648;2023-11-21T18:14:05;101131.75;;;5.87;89.11
19005;BME280;9635;52.078;8.648;2023-11-21T18:19:12;101143.38;;;5.86;89.04
19005;BME280;9635;52.078;8.648;2023-11-21T18:24:16;101151.47;;;5.84;89.04
19005;BME280;9635;52.078;8.648;2023-11-21T18:29:19;101161.91;;;5.70;88.36
19005;BME280;9635;52.078;8.648;2023-11-21T18:34:22;101167.03;;;5.75;87.99
19005;BME280;9635;52.078;8.648;2023-11-21T18:39:27;101181.53;;;5.69;86.78
19005;BME280;9635;52.078;8.648;2023-11-21T18:44:30;101178.16;;;5.65;85.89
19005;BME280;9635;52.078;8.648;2023-11-21T18:49:48;101185.34;;;5.63;85.63
19005;BME280;9635;52.078;8.648;2023-11-21T18:54:53;101198.59;;;5.65;85.76
19005;BME280;9635;52.078;8.648;2023-11-21T18:59:57;101208.19;;;5.69;85.55
19005;BME280;9635;52.078;8.648;2023-11-21T19:04:59;101216.19;;;5.69;85.54
19005;BME280;9635;52.078;8.648;2023-11-21T19:10:07;101223.38;;;5.67;85.48
19005;BME280;9635;52.078;8.648;2023-11-21T19:15:12;101215.38;;;5.67;85.63
19005;BME280;9635;52.078;8.648;2023-11-21T19:20:15;101226.34;;;5.61;85.21
19005;BME280;9635;52.078;8.648;2023-11-21T19:25:21;101244.94;;;5.62;84.56
19005;BME280;9635;52.078;8.648;2023-11-21T19:30:24;101255.72;;;5.59;84.02
19005;BME280;9635;52.078;8.648;2023-11-21T19:35:27;101256.00;;;5.53;83.60
19005;BME280;9635;52.078;8.648;2023-11-21T19:40:36;101255.81;;;5.58;84.53
19005;BME280;9635;52.078;8.648;2023-11-21T19:45:41;101267.31;;;5.58;83.96
19005;BME280;9635;52.078;8.648;2023-11-21T19:50:44;101259.31;;;5.58;83.77
19005;BME280;9635;52.078;8.648;2023-11-21T19:55:48;101268.03;;;5.62;84.10
19005;BME280;9635;52.078;8.648;2023-11-21T20:00:52;101268.94;;;5.62;83.59
19005;BME280;9635;52.078;8.648;2023-11-21T20:05:55;101277.03;;;5.59;83.13
19005;BME280;9635;52.078;8.648;2023-11-21T20:10:59;101285.19;;;5.56;83.17
19005;BME280;9635;52.078;8.648;2023-11-21T20:16:02;101291.59;;;5.52;82.55
19005;BME280;9635;52.078;8.648;2023-11-21T20:21:07;101302.25;;;5.52;82.58
19005;BME280;9635;52.078;8.648;2023-11-21T20:26:11;101311.25;;;5.49;82.82
19005;BME280;9635;52.078;8.648;2023-11-21T20:31:19;101326.16;;;5.54;83.29
19005;BME280;9635;52.078;8.648;2023-11-21T20:36:22;101327.06;;;5.54;83.71
19005;BME280;9635;52.078;8.648;2023-11-21T20:41:28;101322.78;;;5.50;83.69
19005;BME280;9635;52.078;8.648;2023-11-21T20:46:31;101328.97;;;5.50;84.22
19005;BME280;9635;52.078;8.648;2023-11-21T20:51:34;101333.59;;;5.47;84.72
19005;BME280;9635;52.078;8.648;2023-11-21T20:56:38;101332.09;;;5.40;85.85
19005;BME280;9635;52.078;8.648;2023-11-21T21:01:42;101329.88;;;5.31;87.13
19005;BME280;9635;52.078;8.648;2023-11-21T21:06:46;101337.28;;;5.24;88.13
19005;BME280;9635;52.078;8.648;2023-11-21T21:11:50;101342.97;;;5.15;88.14
19005;BME280;9635;52.078;8.648;2023-11-21T21:16:53;101352.22;;;5.06;87.90
19005;BME280;9635;52.078;8.648;2023-11-21T21:21:56;101363.38;;;5.16;88.21
19005;BME280;9635;52.078;8.648;2023-11-21T21:27:00;101369.56;;;5.16;87.49
19005;BME280;9635;52.078;8.648;2023-11-21T21:32:04;101373.81;;;5.20;87.39
19005;BME280;9635;52.078;8.648;2023-11-21T21:37:08;101381.75;;;5.22;87.11
19005;BME280;9635;52.078;8.648;2023-11-21T21:42:13;101373.22;;;5.14;86.17
19005;BME280;9635;52.078;8.648;2023-11-21T21:47:16;101379.72;;;5.06;85.23
19005;BME280;9635;52.078;8.648;2023-11-21T21:52:19;101373.72;;;5.01;84.42
19005;BME280;9635;52.078;8.648;2023-11-21T21:57:23;101392.72;;;4.92;83.31
19005;BME280;9635;52.078;8.648;2023-11-21T22:02:27;101393.03;;;4.84;83.72
19005;BME280;9635;52.078;8.648;2023-11-21T22:07:32;101399.91;;;4.68;83.23
19005;BME280;9635;52.078;8.648;2023-11-21T22:12:36;101411.97;;;4.55;83.61
19005;BME280;9635;52.078;8.648;2023-11-21T22:17:39;101419.72;;;4.39;84.07
19005;BME280;9635;52.078;8.648;2023-11-21T22:22:42;101423.69;;;4.27;84.65
19005;BME280;9635;52.078;8.648;2023-11-21T22:27:47;101425.91;;;4.16;85.32
19005;BME280;9635;52.078;8.648;2023-11-21T22:32:50;101445.09;;;4.01;86.03
19005;BME280;9635;52.078;8.648;2023-11-21T22:37:53;101449.72;;;3.95;86.08
19005;BME280;9635;52.078;8.648;2023-11-21T22:42:58;101447.38;;;3.86;86.29
19005;BME280;9635;52.078;8.648;2023-11-21T22:48:00;101457.38;;;3.80;86.82
19005;BME280;9635;52.078;8.648;2023-11-21T22:53:03;101463.91;;;3.69;86.95
19005;BME280;9635;52.078;8.648;2023-11-21T22:58:08;101464.16;;;3.63;87.22
19005;BME280;9635;52.078;8.648;2023-11-21T23:03:11;101463.44;;;3.58;87.63
19005;BME280;9635;52.078;8.648;2023-11-21T23:08:14;101473.41;;;3.52;87.83
19005;BME280;9635;52.078;8.648;2023-11-21T23:13:19;101478.00;;;3.46;87.72
19005;BME280;9635;52.078;8.648;2023-11-21T23:18:22;101471.25;;;3.36;88.04
19005;BME280;9635;52.078;8.648;2023-11-21T23:23:29;101469.81;;;3.26;88.40
19005;BME280;9635;52.078;8.648;2023-11-21T23:28:34;101465.81;;;3.14;88.61
19005;BME280;9635;52.078;8.648;2023-11-21T23:33:36;101473.13;;;3.08;88.85
19005;BME280;9635;52.078;8.648;2023-11-21T23:38:39;101476.41;;;3.14;89.28
19005;BME280;9635;52.078;8.648;2023-11-21T23:43:45;101479.72;;;3.21;89.22
19005;BME280;9635;52.078;8.648;2023-11-21T23:48:48;101496.38;;;3.26;89.11
19005;BME280;9635;52.078;8.648;2023-11-21T23:53:51;101507.94;;;3.25;88.88
19005;BME280;9635;52.078;8.648;2023-11-21T23:58:56;101519.56;;;3.21;88.37
